Latest Weather Observations for Creal Reef

IDQ60801

Issued at 8:02 am EST Sunday 28 December 2014 (issued every 30 minutes, with the page automatically refreshed every 10 minutes)

About weather observations | Map of weather stations | Latest weather observations for QLD | Other Formats
Station Details ID: 200736 Name: CREAL REEF Lat: -20.53 Lon: 150.38 Height: 1.7 m
Data from the previous 72 hours. | See also: Recent months for locations in Queensland
Date/Time
EST
Temp
°C
App
Temp
°C
Dew
Point
Rel
Hum
%
Delta-T
°C
Wind Press
QNH
hPa
Press
MSL
hPa
Rain
since 9 am
mm
Dir
 
Spd
km/h
Gust
km/h
Spd
kts
Gust
kts
28/08:00am 27.5 - - - - E 19 20 10 11 1011.3 - -
28/07:30am 27.6 - - - - E 20 24 11 13 1011.4 - -
28/07:20am 27.6 - - - - E 20 - 11 - - 1011.2 -
28/07:00am 27.5 - - - - E 20 24 11 13 1011.3 - -
28/06:30am 27.4 - - - - E 20 24 11 13 1011.0 - -
28/06:20am 27.3 - - - - E 22 - 12 - - 1010.8 -
28/06:00am 27.3 - - - - E 22 26 12 14 1010.6 - -
28/05:30am 27.0 - - - - E 22 26 12 14 1010.2 - -
28/05:20am 27.1 - - - - E 22 - 12 - - 1010.0 -
28/05:00am 27.1 - - - - E 20 24 11 13 1010.0 - -
28/04:30am 27.1 - - - - E 22 26 12 14 1009.7 - -
28/04:20am 27.1 - - - - E 20 - 11 - - 1009.5 -
28/04:00am 27.0 - - - - E 24 26 13 14 1009.5 - -
28/03:30am 27.2 - - - - E 26 28 14 15 1009.6 - -
28/03:20am 27.1 - - - - E 26 - 14 - - 1009.5 -
28/03:00am 27.0 - - - - E 26 28 14 15 1009.7 - -
28/02:30am 27.1 - - - - E 26 30 14 16 1009.8 - -
28/02:20am 27.2 - - - - ENE 26 - 14 - - 1009.8 -
28/02:00am 27.3 - - - - E 26 30 14 16 1009.9 - -
28/01:30am 27.3 - - - - E 26 30 14 16 1010.2 - -
28/01:20am 27.3 - - - - E 26 - 14 - - 1010.1 -
28/01:00am 27.2 - - - - E 24 26 13 14 1010.4 - -
28/12:30am 27.1 - - - - E 20 24 11 13 1010.8 - -
28/12:20am 27.0 - - - - E 22 - 12 - - 1010.7 -
28/12:00am 27.2 - - - - E 19 20 10 11 1011.0 - -
 
Date/Time
EST
Temp
°C
App
Temp
°C
Dew
Point
Rel
Hum
%
Delta-T
°C
Wind Press
QNH
hPa
Press
MSL
hPa
Rain
since 9 am
mm
Dir
 
Spd
km/h
Gust
km/h
Spd
kts
Gust
kts
27/11:30pm 27.0 - - - - E 22 26 12 14 1011.3 - -
27/11:20pm 27.0 - - - - E 24 - 13 - - 1011.3 -
27/11:00pm 26.9 - - - - E 30 33 16 18 1011.5 - -
27/10:30pm 27.3 - - - - E 26 28 14 15 1011.6 - -
27/10:20pm 27.3 - - - - E 22 - 12 - - 1011.5 -
27/10:00pm 27.2 - - - - E 22 26 12 14 1011.6 - -
27/09:30pm 27.1 - - - - E 22 24 12 13 1011.6 - -
27/09:20pm 27.1 - - - - E 20 - 11 - - 1011.6 -
27/09:00pm 27.0 - - - - E 22 26 12 14 1011.6 - -
27/08:30pm 26.9 - - - - E 22 26 12 14 1011.4 - -
27/08:20pm 26.9 - - - - E 24 - 13 - - 1011.3 -
27/08:00pm 27.0 - - - - E 24 28 13 15 1011.4 - -
27/07:30pm 26.9 - - - - E 24 28 13 15 1011.2 - -
27/07:20pm 27.0 - - - - ESE 24 - 13 - - 1011.1 -
27/07:00pm 27.0 - - - - ESE 26 30 14 16 1011.0 - -
27/06:30pm 27.1 - - - - ESE 28 32 15 17 1010.7 - -
27/06:20pm 27.1 - - - - ESE 26 - 14 - - 1010.5 -
27/06:00pm 26.9 - - - - ESE 26 30 14 16 1010.3 - -
27/05:30pm 26.9 - - - - ESE 24 28 13 15 1009.9 - -
27/05:20pm 27.0 - - - - ESE 26 - 14 - - 1009.8 -
27/05:00pm 27.4 - - - - ESE 20 24 11 13 1009.7 - -
27/04:30pm 27.3 - - - - ESE 20 24 11 13 1009.6 - -
27/04:20pm 27.3 - - - - ESE 20 - 11 - - 1009.3 -
27/04:00pm 27.3 - - - - SE 22 24 12 13 1009.3 - -
27/03:30pm 27.4 - - - - ESE 17 20 9 11 1009.3 - -
27/03:20pm 27.3 - - - - ESE 17 - 9 - - 1009.2 -
27/03:00pm 27.5 - - - - ESE 20 22 11 12 1009.3 - -
27/02:30pm 27.5 - - - - ESE 20 22 11 12 1009.6 - -
27/02:20pm 27.5 - - - - ESE 20 - 11 - - 1009.6 -
27/02:00pm 27.5 - - - - SE 20 22 11 12 1010.0 - -
27/01:30pm 27.5 - - - - SE 15 19 8 10 1010.2 - -
27/01:20pm 27.4 - - - - ESE 17 - 9 - - 1010.2 -
27/01:00pm 27.4 - - - - ESE 19 20 10 11 1010.3 - -
27/12:30pm 27.4 - - - - ESE 17 20 9 11 1010.4 - -
27/12:20pm 27.6 - - - - ESE 17 - 9 - - 1010.3 -
27/12:00pm 27.4 - - - - ESE 19 20 10 11 1010.5 - -
27/11:30am 27.6 - - - - E 17 20 9 11 1010.9 - -
27/11:20am 27.5 - - - - ESE 17 - 9 - - 1010.9 -
27/11:00am 27.6 - - - - E 17 20 9 11 1011.0 - -
27/10:30am 27.5 - - - - E 17 20 9 11 1011.1 - -
27/10:20am 27.6 - - - - ESE 17 - 9 - - 1011.0 -
27/10:00am 27.5 - - - - E 17 20 9 11 1011.1 - -
27/09:30am 27.6 - - - - E 19 20 10 11 1011.1 - -
27/09:20am 27.6 - - - - E 17 - 9 - - 1011.1 -
27/09:00am 27.6 - - - - E 17 20 9 11 1011.1 - -
27/08:30am 27.4 - - - - E 19 20 10 11 1011.0 - -
27/08:20am 27.6 - - - - E 19 - 10 - - 1010.9 -
27/08:00am 27.5 - - - - E 19 22 10 12 1011.1 - -
27/07:30am 27.4 - - - - E 20 22 11 12 1011.0 - -
27/07:20am 27.4 - - - - E 20 - 11 - - 1010.9 -
27/07:00am 27.4 - - - - E 20 24 11 13 1010.9 - -
27/06:30am 27.0 - - - - ENE 22 26 12 14 1010.6 - -
27/06:20am 27.0 - - - - ENE 24 - 13 - - 1010.3 -
27/06:00am 26.9 - - - - E 20 26 11 14 1010.3 - -
27/05:30am 26.5 - - - - E 20 24 11 13 1010.0 - -
27/05:20am 26.6 - - - - E 20 - 11 - - 1009.8 -
27/05:00am 26.7 - - - - E 24 26 13 14 1009.5 - -
27/04:30am 26.8 - - - - E 20 24 11 13 1009.3 - -
27/04:20am 26.8 - - - - E 22 - 12 - - 1009.3 -
27/04:00am 26.7 - - - - E 22 26 12 14 1009.3 - -
27/03:20am 26.7 - - - - E 20 - 11 - - 1009.1 -
27/03:00am 26.6 - - - - E 22 24 12 13 1009.3 - -
27/02:30am 25.3 - - - - ENE 17 43 9 23 1009.5 - -
27/02:27am 25.3 - - - - ENE 19 43 10 23 1009.5 - -
27/02:23am 25.3 - - - - NNE 37 43 20 23 1009.3 - -
27/02:20am 25.5 - - - - NE 30 - 16 - - 1009.4 -
27/02:00am 26.8 - - - - ESE 22 26 12 14 1009.5 - -
27/01:30am 26.8 - - - - ESE 19 22 10 12 1009.7 - -
27/01:20am 26.7 - - - - ESE 19 - 10 - - 1009.6 -
27/01:00am 26.9 - - - - E 20 24 11 13 1010.0 - -
27/12:30am 26.9 - - - - E 22 24 12 13 1010.2 - -
27/12:20am 26.9 - - - - E 22 - 12 - - 1010.3 -
27/12:00am 27.0 - - - - E 22 26 12 14 1010.6 - -
 
Date/Time
EST
Temp
°C
App
Temp
°C
Dew
Point
Rel
Hum
%
Delta-T
°C
Wind Press
QNH
hPa
Press
MSL
hPa
Rain
since 9 am
mm
Dir
 
Spd
km/h
Gust
km/h
Spd
kts
Gust
kts
26/11:30pm 27.0 - - - - E 24 28 13 15 1010.6 - -
26/11:20pm 27.0 - - - - E 24 - 13 - - 1010.5 -
26/11:00pm 27.1 - - - - E 24 28 13 15 1010.6 - -
26/10:30pm 27.0 - - - - E 22 26 12 14 1010.8 - -
26/10:20pm 26.9 - - - - E 22 - 12 - - 1010.7 -
26/10:00pm 27.0 - - - - ESE 20 24 11 13 1010.8 - -
26/09:30pm 27.0 - - - - E 22 26 12 14 1010.5 - -
26/09:20pm 27.0 - - - - ESE 22 - 12 - - 1010.4 -
26/09:00pm 27.0 - - - - ESE 20 24 11 13 1010.3 - -
26/08:30pm 27.0 - - - - E 20 22 11 12 1010.1 - -
26/08:20pm 27.0 - - - - E 20 - 11 - - 1009.9 -
26/08:00pm 27.1 - - - - ESE 22 26 12 14 1009.8 - -
26/07:30pm 27.0 - - - - E 22 24 12 13 1009.6 - -
26/07:20pm 27.1 - - - - E 20 - 11 - - 1009.4 -
26/07:00pm 27.1 - - - - E 20 26 11 14 1009.3 - -
26/06:30pm 27.1 - - - - ESE 22 24 12 13 1009.1 - -
26/06:20pm 27.1 - - - - ESE 20 - 11 - - 1009.1 -
26/06:00pm 27.1 - - - - ESE 20 22 11 12 1008.9 - -
26/05:30pm 27.2 - - - - E 17 19 9 10 1008.6 - -
26/05:20pm 27.0 - - - - E 17 - 9 - - 1008.6 -
26/05:00pm 27.1 - - - - E 19 22 10 12 1008.5 - -
26/04:30pm 27.2 - - - - ESE 19 24 10 13 1008.4 - -
26/04:20pm 27.2 - - - - ESE 19 - 10 - - 1008.4 -
26/04:00pm 27.2 - - - - ESE 20 24 11 13 1008.3 - -
26/03:30pm 27.2 - - - - ESE 20 24 11 13 1008.3 - -
26/03:20pm 27.2 - - - - ESE 19 - 10 - - 1008.4 -
26/03:00pm 27.3 - - - - ESE 20 22 11 12 1008.5 - -
26/02:30pm 27.2 - - - - ESE 19 20 10 11 1008.7 - -
26/02:20pm 27.2 - - - - ESE 19 - 10 - - 1008.9 -
26/02:00pm 27.2 - - - - ESE 17 20 9 11 1009.0 - -
26/01:30pm 27.2 - - - - ESE 19 22 10 12 1009.3 - -
26/01:20pm 27.2 - - - - ESE 19 - 10 - - 1009.3 -
26/01:00pm 27.2 - - - - ESE 19 20 10 11 1009.5 - -
26/12:30pm 27.1 - - - - ESE 17 20 9 11 1009.7 - -
26/12:20pm 27.1 - - - - ESE 19 - 10 - - 1009.6 -
26/12:00pm 27.1 - - - - ESE 19 20 10 11 1009.7 - -
26/11:30am 27.1 - - - - ESE 19 20 10 11 1010.0 - -
26/11:20am 27.2 - - - - ESE 19 - 10 - - 1010.1 -
26/11:00am 27.3 - - - - ESE 17 20 9 11 1010.3 - -
26/10:30am 27.2 - - - - ESE 20 22 11 12 1010.4 - -
26/10:20am 27.4 - - - - E 19 - 10 - - 1010.3 -
26/10:00am 27.4 - - - - E 19 22 10 12 1010.4 - -
26/09:30am 27.3 - - - - E 20 22 11 12 1010.4 - -
26/09:20am 27.4 - - - - E 19 - 10 - - 1010.2 -
26/09:00am 27.1 - - - - ESE 20 24 11 13 1010.4 - -
26/08:30am 27.1 - - - - E 20 24 11 13 1010.3 - -
26/08:20am 27.3 - - - - E 20 - 11 - - 1010.1 -
26/08:00am 27.2 - - - - E 19 20 10 11 1010.2 - -
26/07:30am 27.1 - - - - E 20 24 11 13 1010.1 - -
26/07:20am 27.1 - - - - E 20 - 11 - - 1010.0 -
26/07:00am 27.2 - - - - E 22 24 12 13 1010.0 - -
26/06:30am 27.2 - - - - E 22 24 12 13 1010.0 - -
26/06:20am 27.2 - - - - E 20 - 11 - - 1009.8 -
26/06:00am 27.0 - - - - E 20 24 11 13 1009.6 - -
26/05:30am 26.8 - - - - E 22 28 12 15 1009.3 - -
26/05:20am 26.7 - - - - E 22 - 12 - - 1009.0 -
26/05:00am 26.8 - - - - E 22 24 12 13 1008.7 - -
26/04:30am 26.7 - - - - E 22 26 12 14 1008.4 - -
26/04:20am 26.8 - - - - E 22 - 12 - - 1008.3 -
26/04:00am 26.7 - - - - E 22 26 12 14 1008.2 - -
26/03:30am 26.7 - - - - E 20 24 11 13 1008.1 - -
26/03:20am 26.7 - - - - E 22 - 12 - - 1008.1 -
26/03:00am 26.8 - - - - E 22 26 12 14 1008.0 - -
26/02:30am 26.8 - - - - E 26 30 14 16 1008.0 - -
26/02:20am 26.7 - - - - E 24 - 13 - - 1008.0 -
26/02:00am 26.8 - - - - E 22 26 12 14 1008.2 - -
26/01:30am 26.8 - - - - E 26 30 14 16 1008.5 - -
26/01:20am 26.8 - - - - E 24 - 13 - - 1008.6 -
26/01:00am 26.7 - - - - E 26 30 14 16 1008.7 - -
26/12:30am 26.8 - - - - ESE 24 26 13 14 1009.1 - -
26/12:20am 26.7 - - - - E 26 - 14 - - 1009.3 -
26/12:00am 26.7 - - - - E 26 30 14 16 1009.3 - -
 
Date/Time
EST
Temp
°C
App
Temp
°C
Dew
Point
Rel
Hum
%
Delta-T
°C
Wind Press
QNH
hPa
Press
MSL
hPa
Rain
since 9 am
mm
Dir
 
Spd
km/h
Gust
km/h
Spd
kts
Gust
kts
25/11:30pm 26.7 - - - - E 30 33 16 18 1009.6 - -
25/11:20pm 26.7 - - - - ESE 28 - 15 - - 1009.6 -
25/11:00pm 26.7 - - - - E 28 33 15 18 1009.9 - -
25/10:30pm 26.7 - - - - E 30 33 16 18 1010.0 - -
25/10:20pm 26.7 - - - - E 28 - 15 - - 1009.9 -
25/10:00pm 26.8 - - - - E 30 32 16 17 1010.0 - -
25/09:30pm 26.8 - - - - E 28 32 15 17 1010.1 - -
25/09:20pm 26.7 - - - - ESE 28 - 15 - - 1009.9 -
25/09:00pm 26.9 - - - - ESE 28 32 15 17 1009.7 - -
25/08:30pm 26.8 - - - - E 26 30 14 16 1009.6 - -
25/08:20pm 26.8 - - - - E 24 - 13 - - 1009.5 -
25/08:00pm 26.8 - - - - E 26 32 14 17 1009.6 - -
25/07:30pm 26.9 - - - - E 26 30 14 16 1009.3 - -
25/07:20pm 26.9 - - - - ESE 26 - 14 - - 1009.3 -
25/07:00pm 26.9 - - - - ESE 26 28 14 15 1009.3 - -
25/06:30pm 26.9 - - - - ESE 26 30 14 16 1009.0 - -
25/06:20pm 26.9 - - - - ESE 24 - 13 - - 1008.9 -
25/06:00pm 27.1 - - - - ESE 24 28 13 15 1008.8 - -
25/05:30pm 26.9 - - - - SE 26 30 14 16 1008.5 - -
25/05:20pm 27.0 - - - - ESE 24 - 13 - - 1008.3 -
25/05:00pm 27.1 - - - - ESE 24 28 13 15 1008.2 - -
25/04:30pm 27.0 - - - - ESE 22 26 12 14 1007.9 - -
25/04:20pm 27.0 - - - - SE 22 - 12 - - 1007.9 -
25/04:00pm 27.1 - - - - SE 22 26 12 14 1007.9 - -
25/03:30pm 27.0 - - - - SE 22 26 12 14 1008.1 - -
25/03:20pm 27.0 - - - - SE 19 - 10 - - 1008.2 -
25/03:00pm 27.2 - - - - ESE 15 19 8 10 1008.4 - -
25/02:30pm 27.0 - - - - SE 17 19 9 10 1008.7 - -
25/02:20pm 27.0 - - - - SE 17 - 9 - - 1008.8 -
25/02:00pm 27.0 - - - - SE 17 19 9 10 1009.0 - -
25/01:30pm 27.0 - - - - ESE 17 20 9 11 1009.3 - -
25/01:20pm 27.1 - - - - SE 17 - 9 - - 1009.3 -
25/01:00pm 27.1 - - - - SE 19 20 10 11 1009.5 - -
25/12:30pm 27.0 - - - - ESE 19 20 10 11 1009.7 - -
25/12:20pm 27.0 - - - - ESE 19 - 10 - - 1009.6 -
25/12:00pm 27.0 - - - - ESE 19 20 10 11 1009.9 - -
25/11:30am 27.1 - - - - ESE 19 22 10 12 1010.4 - -
25/11:20am 27.0 - - - - ESE 19 - 10 - - 1010.3 -
25/11:00am 27.0 - - - - ESE 19 20 10 11 1010.7 - -
25/10:30am 27.0 - - - - ESE 20 22 11 12 1010.7 - -
25/10:20am 27.0 - - - - ESE 20 - 11 - - 1010.6 -
25/10:00am 27.0 - - - - E 20 22 11 12 1010.9 - -
25/09:30am 27.0 - - - - ESE 20 22 11 12 1011.0 - -
25/09:20am 27.1 - - - - E 20 - 11 - - 1010.9 -
25/09:00am 27.1 - - - - E 20 24 11 13 1010.9 - -
25/08:30am 27.1 - - - - E 20 24 11 13 1010.8 - -
25/08:20am 27.1 - - - - E 22 - 12 - - 1010.7 -

Other Formats:

Comma delimited format used in spreadsheet applications
http://www.bom.gov.au/fwo/IDQ60801/IDQ60801.94371.axf

JavaScript Object Notation format (JSON) in row-major order
http://www.bom.gov.au/fwo/IDQ60801/IDQ60801.94371.json